N1257E KHXD-KEYW
Flight info
| Callsign | N1257E |
|---|---|
| Flight time | 1h 31m |
| Altitude | 43000 |
| Route | GIPPL WOPNR Q97 KENLL OMN SABEE KRAKN1 |
| Aircraft | HDJT/L-SABDGRWY/H |
Departure
| Time | 2026-05-04 18:53 |
|---|---|
| Airport | Hilton Head Airport (KHXD) |
Arrival
| Time | 2026-05-04 20:25 |
|---|---|
| Airport | Key West International Airport (KEYW) |
| Time | Latitude | Longitude | Altitude | Speed | Heading |
|---|---|---|---|---|---|
| 2026-05-04 18:40 | 32.22049 | -80.69700 | 19 ft | 0 kts | 22° |
| 2026-05-04 18:49 | 32.22064 | -80.69703 | 19 ft | 5 kts | 324° |
| 2026-05-04 18:49 | 32.22095 | -80.69756 | 18 ft | 10 kts | 297° |
| 2026-05-04 18:49 | 32.22141 | -80.69812 | 16 ft | 10 kts | 20° |
| 2026-05-04 18:49 | 32.22194 | -80.69781 | 18 ft | 7 kts | 26° |
| 2026-05-04 18:50 | 32.22245 | -80.69751 | 10 ft | 10 kts | 26° |
| 2026-05-04 18:50 | 32.22314 | -80.69711 | 19 ft | 11 kts | 26° |
| 2026-05-04 18:50 | 32.22381 | -80.69672 | 20 ft | 12 kts | 26° |
| 2026-05-04 18:50 | 32.22470 | -80.69621 | 23 ft | 15 kts | 26° |
| 2026-05-04 18:51 | 32.22561 | -80.69569 | 22 ft | 15 kts | 26° |
| 2026-05-04 18:51 | 32.22654 | -80.69515 | 21 ft | 15 kts | 25° |
| 2026-05-04 18:51 | 32.22748 | -80.69462 | 21 ft | 15 kts | 25° |
| 2026-05-04 18:51 | 32.22843 | -80.69407 | 18 ft | 16 kts | 26° |
| 2026-05-04 18:52 | 32.22950 | -80.69345 | 16 ft | 17 kts | 26° |
| 2026-05-04 18:52 | 32.23015 | -80.69309 | 16 ft | 0 kts | 3° |
| 2026-05-04 18:52 | 32.23035 | -80.69322 | 16 ft | 6 kts | 303° |
| 2026-05-04 18:52 | 32.23051 | -80.69386 | 15 ft | 11 kts | 246° |
| 2026-05-04 18:53 | 32.22948 | -80.69454 | 15 ft | 33 kts | 206° |
| 2026-05-04 18:53 | 32.22482 | -80.69722 | 22 ft | 114 kts | 204° |
| 2026-05-04 18:53 | 32.21696 | -80.70174 | 454 ft | 124 kts | 202° |
| 2026-05-04 18:53 | 32.20898 | -80.70604 | 941 ft | 140 kts | 201° |
| 2026-05-04 18:54 | 32.19881 | -80.71126 | 1172 ft | 177 kts | 200° |
| 2026-05-04 18:54 | 32.18642 | -80.71727 | 1489 ft | 206 kts | 200° |
| 2026-05-04 18:54 | 32.17261 | -80.72415 | 1833 ft | 218 kts | 202° |
| 2026-05-04 18:54 | 32.15944 | -80.73123 | 1945 ft | 207 kts | 203° |
| 2026-05-04 18:55 | 32.14534 | -80.73899 | 1943 ft | 238 kts | 203° |
| 2026-05-04 18:55 | 32.11602 | -80.75507 | 2726 ft | 213 kts | 202° |
| 2026-05-04 18:55 | 32.10259 | -80.76188 | 3550 ft | 211 kts | 194° |
| 2026-05-04 18:56 | 32.08781 | -80.76366 | 4210 ft | 216 kts | 181° |
| 2026-05-04 18:56 | 32.07252 | -80.76428 | 4871 ft | 223 kts | 184° |
| 2026-05-04 18:56 | 32.05686 | -80.76602 | 5535 ft | 229 kts | 187° |
| 2026-05-04 18:56 | 32.04090 | -80.76832 | 6244 ft | 233 kts | 187° |
| 2026-05-04 18:57 | 32.02452 | -80.77051 | 6877 ft | 239 kts | 186° |
| 2026-05-04 18:57 | 32.00788 | -80.77262 | 7584 ft | 242 kts | 186° |
| 2026-05-04 18:57 | 31.99118 | -80.77476 | 8369 ft | 242 kts | 187° |
| 2026-05-04 18:57 | 31.97438 | -80.77694 | 9115 ft | 244 kts | 187° |
| 2026-05-04 18:58 | 31.95744 | -80.77913 | 9882 ft | 246 kts | 187° |
| 2026-05-04 18:58 | 31.94036 | -80.78134 | 10573 ft | 248 kts | 187° |
| 2026-05-04 18:58 | 31.92309 | -80.78357 | 11259 ft | 251 kts | 188° |
| 2026-05-04 18:58 | 31.90562 | -80.78583 | 11938 ft | 254 kts | 188° |
| 2026-05-04 18:59 | 31.88791 | -80.78812 | 12626 ft | 258 kts | 189° |
| 2026-05-04 18:59 | 31.86998 | -80.79043 | 13319 ft | 261 kts | 189° |
| 2026-05-04 18:59 | 31.85184 | -80.79277 | 14006 ft | 264 kts | 189° |
| 2026-05-04 18:59 | 31.83348 | -80.79514 | 14647 ft | 266 kts | 189° |
| 2026-05-04 19:00 | 31.81498 | -80.79752 | 15302 ft | 269 kts | 190° |
| 2026-05-04 19:00 | 31.79632 | -80.79992 | 15959 ft | 271 kts | 190° |
| 2026-05-04 19:00 | 31.77749 | -80.80235 | 16626 ft | 273 kts | 190° |
| 2026-05-04 19:00 | 31.75853 | -80.80479 | 17294 ft | 276 kts | 190° |
| 2026-05-04 19:01 | 31.73939 | -80.80725 | 17972 ft | 278 kts | 190° |
| 2026-05-04 19:01 | 31.72009 | -80.80973 | 18617 ft | 280 kts | 190° |
| 2026-05-04 19:01 | 31.70063 | -80.81224 | 19212 ft | 282 kts | 191° |
| 2026-05-04 19:01 | 31.68107 | -80.81475 | 19818 ft | 284 kts | 191° |
| 2026-05-04 19:02 | 31.66136 | -80.81728 | 20421 ft | 286 kts | 191° |
| 2026-05-04 19:02 | 31.64151 | -80.81983 | 21035 ft | 288 kts | 192° |
| 2026-05-04 19:02 | 31.62154 | -80.82239 | 21662 ft | 290 kts | 192° |
| 2026-05-04 19:02 | 31.60140 | -80.82498 | 22297 ft | 292 kts | 192° |
| 2026-05-04 19:03 | 31.58114 | -80.82757 | 22942 ft | 294 kts | 193° |
| 2026-05-04 19:03 | 31.56069 | -80.83020 | 23594 ft | 297 kts | 193° |
| 2026-05-04 19:03 | 31.54013 | -80.83283 | 24146 ft | 299 kts | 193° |
| 2026-05-04 19:03 | 31.51936 | -80.83549 | 24694 ft | 301 kts | 194° |
| 2026-05-04 19:04 | 31.49849 | -80.83816 | 25225 ft | 303 kts | 194° |
| 2026-05-04 19:04 | 31.47746 | -80.84085 | 25747 ft | 305 kts | 194° |
| 2026-05-04 19:04 | 31.45634 | -80.84355 | 26247 ft | 306 kts | 195° |
| 2026-05-04 19:04 | 31.43510 | -80.84626 | 26753 ft | 308 kts | 195° |
| 2026-05-04 19:05 | 31.41401 | -80.84897 | 27235 ft | 310 kts | 195° |
| 2026-05-04 19:05 | 31.39250 | -80.85171 | 27712 ft | 312 kts | 195° |
| 2026-05-04 19:05 | 31.37085 | -80.85448 | 28176 ft | 314 kts | 196° |
| 2026-05-04 19:05 | 31.34904 | -80.85725 | 28633 ft | 316 kts | 196° |
| 2026-05-04 19:06 | 31.32713 | -80.86005 | 29075 ft | 318 kts | 196° |
| 2026-05-04 19:06 | 31.30505 | -80.86286 | 29509 ft | 320 kts | 196° |
| 2026-05-04 19:06 | 31.28282 | -80.86570 | 29928 ft | 322 kts | 197° |
| 2026-05-04 19:06 | 31.26047 | -80.86854 | 30312 ft | 324 kts | 197° |
| 2026-05-04 19:07 | 31.23800 | -80.87140 | 30658 ft | 325 kts | 197° |
| 2026-05-04 19:07 | 31.21555 | -80.87423 | 31074 ft | 324 kts | 197° |
| 2026-05-04 19:07 | 31.19318 | -80.87707 | 31450 ft | 323 kts | 198° |
| 2026-05-04 19:07 | 31.17088 | -80.87992 | 31835 ft | 322 kts | 198° |
| 2026-05-04 19:08 | 31.14863 | -80.88274 | 32228 ft | 321 kts | 198° |
| 2026-05-04 19:08 | 31.12643 | -80.88556 | 32619 ft | 320 kts | 198° |
| 2026-05-04 19:08 | 31.10430 | -80.88837 | 33001 ft | 319 kts | 199° |
| 2026-05-04 19:08 | 31.08271 | -80.89111 | 33373 ft | 319 kts | 199° |
| 2026-05-04 19:09 | 31.06070 | -80.89392 | 33925 ft | 321 kts | 192° |
| 2026-05-04 19:09 | 31.03838 | -80.89673 | 34204 ft | 321 kts | 196° |
| 2026-05-04 19:09 | 31.01633 | -80.89949 | 34590 ft | 317 kts | 196° |
| 2026-05-04 19:09 | 30.99438 | -80.90229 | 34894 ft | 317 kts | 197° |
| 2026-05-04 19:10 | 30.97252 | -80.90508 | 35184 ft | 316 kts | 197° |
| 2026-05-04 19:10 | 30.95067 | -80.90783 | 35485 ft | 315 kts | 197° |
| 2026-05-04 19:10 | 30.92891 | -80.91057 | 35799 ft | 314 kts | 197° |
| 2026-05-04 19:10 | 30.90707 | -80.91331 | 35957 ft | 317 kts | 198° |
| 2026-05-04 19:11 | 30.88512 | -80.91617 | 36112 ft | 321 kts | 198° |
| 2026-05-04 19:11 | 30.87030 | -80.91810 | 36113 ft | 327 kts | 198° |
| 2026-05-04 19:11 | 30.82396 | -80.92389 | 36116 ft | 342 kts | 197° |
| 2026-05-04 19:12 | 30.75096 | -80.93308 | 36114 ft | 360 kts | 196° |
| 2026-05-04 19:13 | 30.70061 | -80.93941 | 36110 ft | 368 kts | 196° |
| 2026-05-04 19:13 | 30.64947 | -80.94580 | 36114 ft | 370 kts | 196° |
| 2026-05-04 19:14 | 30.59856 | -80.95220 | 36101 ft | 367 kts | 197° |
| 2026-05-04 19:14 | 30.54779 | -80.95858 | 36102 ft | 367 kts | 197° |
| 2026-05-04 19:15 | 30.49699 | -80.96494 | 36103 ft | 367 kts | 197° |
| 2026-05-04 19:15 | 30.43801 | -80.97233 | 36104 ft | 367 kts | 197° |
| 2026-05-04 19:16 | 30.39550 | -80.97764 | 36098 ft | 367 kts | 197° |
| 2026-05-04 19:16 | 30.34508 | -80.98394 | 36098 ft | 367 kts | 197° |
| 2026-05-04 19:17 | 30.29434 | -80.99027 | 36102 ft | 367 kts | 197° |
| 2026-05-04 19:17 | 30.24358 | -80.99661 | 36101 ft | 367 kts | 197° |
| 2026-05-04 19:18 | 30.19283 | -81.00293 | 36095 ft | 367 kts | 197° |
| 2026-05-04 19:18 | 30.14210 | -81.00924 | 36098 ft | 367 kts | 197° |
| 2026-05-04 19:19 | 30.09135 | -81.01555 | 36099 ft | 367 kts | 197° |
| 2026-05-04 19:19 | 30.04073 | -81.02183 | 36101 ft | 365 kts | 197° |
| 2026-05-04 19:20 | 29.99016 | -81.02811 | 36100 ft | 365 kts | 197° |
| 2026-05-04 19:20 | 29.93961 | -81.03437 | 36100 ft | 365 kts | 197° |
| 2026-05-04 19:21 | 29.88905 | -81.04063 | 36104 ft | 365 kts | 197° |
| 2026-05-04 19:21 | 29.83847 | -81.04689 | 36101 ft | 365 kts | 197° |
| 2026-05-04 19:22 | 29.78796 | -81.05312 | 36099 ft | 364 kts | 197° |
| 2026-05-04 19:22 | 29.73755 | -81.05935 | 36110 ft | 364 kts | 197° |
| 2026-05-04 19:23 | 29.68713 | -81.06556 | 36107 ft | 364 kts | 197° |
| 2026-05-04 19:23 | 29.63672 | -81.07177 | 36109 ft | 364 kts | 197° |
| 2026-05-04 19:24 | 29.58633 | -81.07797 | 36108 ft | 364 kts | 197° |
| 2026-05-04 19:24 | 29.53589 | -81.08417 | 36107 ft | 364 kts | 197° |
| 2026-05-04 19:25 | 29.48564 | -81.09034 | 36112 ft | 362 kts | 197° |
| 2026-05-04 19:25 | 29.43586 | -81.09646 | 36111 ft | 362 kts | 197° |
| 2026-05-04 19:26 | 29.38540 | -81.10263 | 36114 ft | 362 kts | 197° |
| 2026-05-04 19:26 | 29.33529 | -81.10877 | 36112 ft | 362 kts | 197° |
| 2026-05-04 19:27 | 29.28759 | -81.12089 | 36117 ft | 346 kts | 210° |
| 2026-05-04 19:27 | 29.24380 | -81.14241 | 36078 ft | 342 kts | 213° |
| 2026-05-04 19:28 | 29.20015 | -81.16394 | 36111 ft | 341 kts | 213° |
| 2026-05-04 19:28 | 29.15666 | -81.18563 | 36111 ft | 341 kts | 213° |
| 2026-05-04 19:29 | 29.11307 | -81.20724 | 36095 ft | 341 kts | 213° |
| 2026-05-04 19:29 | 29.06921 | -81.22900 | 36094 ft | 341 kts | 213° |
| 2026-05-04 19:29 | 29.04754 | -81.23972 | 36205 ft | 331 kts | 213° |
| 2026-05-04 19:30 | 29.02718 | -81.24961 | 36799 ft | 305 kts | 214° |
| 2026-05-04 19:30 | 29.00817 | -81.25908 | 37093 ft | 304 kts | 215° |
| 2026-05-04 19:30 | 28.98832 | -81.26918 | 37092 ft | 312 kts | 214° |
| 2026-05-04 19:31 | 28.94794 | -81.28906 | 37094 ft | 323 kts | 213° |
| 2026-05-04 19:31 | 28.90603 | -81.30981 | 37092 ft | 334 kts | 213° |
| 2026-05-04 19:32 | 28.86289 | -81.33109 | 37089 ft | 341 kts | 213° |
| 2026-05-04 19:32 | 28.81892 | -81.35274 | 37087 ft | 342 kts | 213° |
| 2026-05-04 19:33 | 28.77558 | -81.37412 | 37083 ft | 342 kts | 213° |
| 2026-05-04 19:33 | 28.73190 | -81.39563 | 37084 ft | 342 kts | 213° |
| 2026-05-04 19:34 | 28.68824 | -81.41711 | 37080 ft | 342 kts | 213° |
| 2026-05-04 19:34 | 28.64482 | -81.43844 | 37083 ft | 339 kts | 213° |
| 2026-05-04 19:35 | 28.60154 | -81.45972 | 37086 ft | 339 kts | 213° |
| 2026-05-04 19:35 | 28.55823 | -81.48096 | 37084 ft | 339 kts | 213° |
| 2026-05-04 19:36 | 28.51489 | -81.50221 | 37083 ft | 339 kts | 213° |
| 2026-05-04 19:36 | 28.47153 | -81.52345 | 37081 ft | 339 kts | 213° |
| 2026-05-04 19:37 | 28.42815 | -81.54468 | 37083 ft | 339 kts | 213° |
| 2026-05-04 19:37 | 28.38482 | -81.56585 | 37074 ft | 337 kts | 213° |
| 2026-05-04 19:38 | 28.34180 | -81.58688 | 37075 ft | 336 kts | 213° |
| 2026-05-04 19:38 | 28.29874 | -81.60789 | 37075 ft | 337 kts | 213° |
| 2026-05-04 19:39 | 28.25571 | -81.62887 | 37070 ft | 337 kts | 213° |
| 2026-05-04 19:39 | 28.21261 | -81.64988 | 37071 ft | 337 kts | 213° |
| 2026-05-04 19:40 | 28.16935 | -81.67095 | 37065 ft | 341 kts | 213° |
| 2026-05-04 19:40 | 28.12576 | -81.69212 | 37066 ft | 341 kts | 213° |
| 2026-05-04 19:41 | 28.08267 | -81.71306 | 37067 ft | 338 kts | 213° |
| 2026-05-04 19:41 | 28.03916 | -81.73420 | 37067 ft | 338 kts | 213° |
| 2026-05-04 19:42 | 27.99588 | -81.75518 | 37049 ft | 338 kts | 213° |
| 2026-05-04 19:42 | 27.95282 | -81.77605 | 37046 ft | 339 kts | 213° |
| 2026-05-04 19:43 | 27.90952 | -81.79702 | 37049 ft | 339 kts | 213° |
| 2026-05-04 19:43 | 27.86618 | -81.81799 | 37048 ft | 339 kts | 213° |
| 2026-05-04 19:44 | 27.82283 | -81.83894 | 37012 ft | 338 kts | 212° |
| 2026-05-04 19:44 | 27.77923 | -81.86001 | 37048 ft | 342 kts | 211° |
| 2026-05-04 19:45 | 27.73551 | -81.88108 | 37051 ft | 341 kts | 211° |
| 2026-05-04 19:45 | 27.69184 | -81.90214 | 37051 ft | 341 kts | 211° |
| 2026-05-04 19:46 | 27.64814 | -81.92319 | 37048 ft | 341 kts | 211° |
| 2026-05-04 19:46 | 27.60446 | -81.94422 | 37048 ft | 341 kts | 211° |
| 2026-05-04 19:47 | 27.56078 | -81.96522 | 37044 ft | 341 kts | 211° |
| 2026-05-04 19:47 | 27.51706 | -81.98623 | 37048 ft | 342 kts | 211° |
| 2026-05-04 19:48 | 27.47337 | -82.00719 | 37043 ft | 341 kts | 211° |
| 2026-05-04 19:48 | 27.42969 | -82.02814 | 37042 ft | 341 kts | 211° |
| 2026-05-04 19:49 | 27.38600 | -82.04907 | 37037 ft | 341 kts | 211° |
| 2026-05-04 19:49 | 27.34230 | -82.07000 | 37034 ft | 341 kts | 211° |
| 2026-05-04 19:50 | 27.29861 | -82.09090 | 37037 ft | 341 kts | 211° |
| 2026-05-04 19:50 | 27.25492 | -82.11178 | 37035 ft | 341 kts | 211° |
| 2026-05-04 19:51 | 27.21127 | -82.13262 | 37027 ft | 341 kts | 211° |
| 2026-05-04 19:51 | 27.16795 | -82.15330 | 37023 ft | 341 kts | 211° |
| 2026-05-04 19:52 | 27.12382 | -82.17379 | 37020 ft | 344 kts | 207° |
| 2026-05-04 19:52 | 27.07586 | -82.18405 | 37029 ft | 360 kts | 192° |
| 2026-05-04 19:53 | 27.02493 | -82.17928 | 37047 ft | 375 kts | 179° |
| 2026-05-04 19:53 | 26.97363 | -82.16931 | 37048 ft | 374 kts | 180° |
| 2026-05-04 19:54 | 26.92229 | -82.15939 | 37034 ft | 375 kts | 180° |
| 2026-05-04 19:54 | 26.87132 | -82.14951 | 37033 ft | 374 kts | 180° |
| 2026-05-04 19:55 | 26.82001 | -82.13959 | 37033 ft | 374 kts | 180° |
| 2026-05-04 19:55 | 26.76871 | -82.12968 | 37027 ft | 374 kts | 180° |
| 2026-05-04 19:56 | 26.71744 | -82.11809 | 37007 ft | 377 kts | 178° |
| 2026-05-04 19:56 | 26.66619 | -82.10609 | 37008 ft | 376 kts | 178° |
| 2026-05-04 19:57 | 26.61491 | -82.09412 | 37007 ft | 378 kts | 178° |
| 2026-05-04 19:57 | 26.56348 | -82.08208 | 37009 ft | 377 kts | 178° |
| 2026-05-04 19:58 | 26.52059 | -82.06989 | 37016 ft | 387 kts | 168° |
| 2026-05-04 19:58 | 26.47082 | -82.04707 | 37022 ft | 389 kts | 167° |
| 2026-05-04 19:59 | 26.42033 | -82.02420 | 37018 ft | 389 kts | 167° |
| 2026-05-04 19:59 | 26.37054 | -82.00143 | 37019 ft | 389 kts | 167° |
| 2026-05-04 20:00 | 26.32042 | -81.97864 | 36996 ft | 390 kts | 168° |
| 2026-05-04 20:00 | 26.26166 | -81.95190 | 36920 ft | 393 kts | 167° |
| 2026-05-04 20:00 | 26.24463 | -81.94423 | 36602 ft | 402 kts | 167° |
| 2026-05-04 20:01 | 26.21824 | -81.93233 | 35908 ft | 416 kts | 167° |
| 2026-05-04 20:01 | 26.19127 | -81.91999 | 34990 ft | 421 kts | 166° |
| 2026-05-04 20:01 | 26.16411 | -81.90754 | 34262 ft | 423 kts | 166° |
| 2026-05-04 20:01 | 26.13671 | -81.89516 | 33717 ft | 427 kts | 166° |
| 2026-05-04 20:02 | 26.10909 | -81.88269 | 33142 ft | 430 kts | 166° |
| 2026-05-04 20:02 | 26.08136 | -81.87009 | 32572 ft | 431 kts | 166° |
| 2026-05-04 20:02 | 26.05352 | -81.85744 | 32001 ft | 433 kts | 166° |
| 2026-05-04 20:02 | 26.02556 | -81.84481 | 31408 ft | 435 kts | 166° |
| 2026-05-04 20:03 | 25.99750 | -81.83212 | 30873 ft | 436 kts | 166° |
| 2026-05-04 20:03 | 25.96937 | -81.81938 | 30298 ft | 438 kts | 166° |
| 2026-05-04 20:03 | 25.94109 | -81.80660 | 29679 ft | 439 kts | 166° |
| 2026-05-04 20:03 | 25.91274 | -81.79379 | 29092 ft | 440 kts | 165° |
| 2026-05-04 20:04 | 25.88474 | -81.77950 | 28509 ft | 447 kts | 158° |
| 2026-05-04 20:04 | 25.85822 | -81.76133 | 27922 ft | 447 kts | 154° |
| 2026-05-04 20:04 | 25.83203 | -81.74311 | 27341 ft | 442 kts | 155° |
| 2026-05-04 20:04 | 25.80597 | -81.72537 | 26767 ft | 437 kts | 155° |
| 2026-05-04 20:05 | 25.78020 | -81.70777 | 26197 ft | 433 kts | 155° |
| 2026-05-04 20:05 | 25.75471 | -81.69016 | 25633 ft | 430 kts | 155° |
| 2026-05-04 20:05 | 25.72946 | -81.67273 | 25073 ft | 426 kts | 155° |
| 2026-05-04 20:05 | 25.70438 | -81.65556 | 24504 ft | 422 kts | 154° |
| 2026-05-04 20:06 | 25.67984 | -81.63876 | 23980 ft | 418 kts | 154° |
| 2026-05-04 20:06 | 25.65523 | -81.62185 | 23409 ft | 414 kts | 154° |
| 2026-05-04 20:06 | 25.63054 | -81.60489 | 22835 ft | 410 kts | 154° |
| 2026-05-04 20:06 | 25.60638 | -81.58836 | 22300 ft | 406 kts | 154° |
| 2026-05-04 20:07 | 25.58247 | -81.57198 | 21772 ft | 402 kts | 154° |
| 2026-05-04 20:07 | 25.55899 | -81.55629 | 21253 ft | 396 kts | 158° |
| 2026-05-04 20:07 | 25.53412 | -81.54451 | 20738 ft | 384 kts | 168° |
| 2026-05-04 20:07 | 25.50859 | -81.53749 | 20229 ft | 373 kts | 178° |
| 2026-05-04 20:08 | 25.48313 | -81.53503 | 19739 ft | 363 kts | 186° |
| 2026-05-04 20:08 | 25.45832 | -81.53681 | 19264 ft | 353 kts | 195° |
| 2026-05-04 20:08 | 25.43461 | -81.54248 | 18799 ft | 344 kts | 203° |
| 2026-05-04 20:08 | 25.41240 | -81.55157 | 18346 ft | 337 kts | 209° |
| 2026-05-04 20:09 | 25.39088 | -81.56169 | 17856 ft | 335 kts | 208° |
| 2026-05-04 20:09 | 25.36939 | -81.57152 | 17421 ft | 333 kts | 208° |
| 2026-05-04 20:09 | 25.34805 | -81.58133 | 16982 ft | 331 kts | 208° |
| 2026-05-04 20:09 | 25.32693 | -81.59114 | 16547 ft | 328 kts | 208° |
| 2026-05-04 20:10 | 25.30595 | -81.60086 | 16118 ft | 326 kts | 208° |
| 2026-05-04 20:10 | 25.28510 | -81.61048 | 15688 ft | 324 kts | 208° |
| 2026-05-04 20:10 | 25.26440 | -81.62004 | 15262 ft | 321 kts | 208° |
| 2026-05-04 20:10 | 25.24385 | -81.62953 | 14839 ft | 319 kts | 208° |
| 2026-05-04 20:11 | 25.22344 | -81.63896 | 14416 ft | 317 kts | 208° |
| 2026-05-04 20:11 | 25.20317 | -81.64831 | 14000 ft | 315 kts | 208° |
| 2026-05-04 20:11 | 25.18305 | -81.65760 | 13565 ft | 313 kts | 208° |
| 2026-05-04 20:11 | 25.16295 | -81.66687 | 13142 ft | 313 kts | 208° |
| 2026-05-04 20:12 | 25.14288 | -81.67613 | 12724 ft | 312 kts | 208° |
| 2026-05-04 20:12 | 25.12289 | -81.68534 | 12309 ft | 311 kts | 207° |
| 2026-05-04 20:12 | 25.10294 | -81.69452 | 11904 ft | 310 kts | 207° |
| 2026-05-04 20:12 | 25.08306 | -81.70369 | 11492 ft | 310 kts | 207° |
| 2026-05-04 20:13 | 25.06333 | -81.71275 | 11091 ft | 299 kts | 207° |
| 2026-05-04 20:13 | 25.04455 | -81.72134 | 10706 ft | 286 kts | 207° |
| 2026-05-04 20:13 | 25.02636 | -81.72975 | 10336 ft | 283 kts | 207° |
| 2026-05-04 20:13 | 25.00812 | -81.73819 | 9961 ft | 284 kts | 206° |
| 2026-05-04 20:14 | 24.98990 | -81.74655 | 9669 ft | 283 kts | 206° |
| 2026-05-04 20:14 | 24.97174 | -81.75488 | 9383 ft | 282 kts | 206° |
| 2026-05-04 20:14 | 24.95370 | -81.76317 | 9102 ft | 281 kts | 206° |
| 2026-05-04 20:14 | 24.93572 | -81.77142 | 8823 ft | 279 kts | 206° |
| 2026-05-04 20:15 | 24.91783 | -81.77965 | 8544 ft | 278 kts | 206° |
| 2026-05-04 20:15 | 24.90001 | -81.78783 | 8277 ft | 277 kts | 206° |
| 2026-05-04 20:15 | 24.88238 | -81.79616 | 8003 ft | 274 kts | 210° |
| 2026-05-04 20:15 | 24.86632 | -81.80718 | 7732 ft | 271 kts | 217° |
| 2026-05-04 20:16 | 24.85054 | -81.81848 | 7459 ft | 270 kts | 215° |
| 2026-05-04 20:16 | 24.83466 | -81.82954 | 7191 ft | 270 kts | 215° |
| 2026-05-04 20:16 | 24.81894 | -81.84064 | 6923 ft | 268 kts | 215° |
| 2026-05-04 20:16 | 24.80328 | -81.85177 | 6657 ft | 268 kts | 216° |
| 2026-05-04 20:17 | 24.78769 | -81.86282 | 6397 ft | 267 kts | 215° |
| 2026-05-04 20:17 | 24.77202 | -81.87390 | 6116 ft | 268 kts | 215° |
| 2026-05-04 20:17 | 24.75638 | -81.88496 | 5849 ft | 267 kts | 215° |
| 2026-05-04 20:17 | 24.74076 | -81.89601 | 5582 ft | 266 kts | 214° |
| 2026-05-04 20:18 | 24.72521 | -81.90700 | 5314 ft | 262 kts | 214° |
| 2026-05-04 20:18 | 24.71039 | -81.91746 | 5063 ft | 245 kts | 214° |
| 2026-05-04 20:18 | 24.69651 | -81.92726 | 4835 ft | 231 kts | 214° |
| 2026-05-04 20:18 | 24.68326 | -81.93663 | 4626 ft | 222 kts | 214° |
| 2026-05-04 20:19 | 24.67034 | -81.94577 | 4422 ft | 221 kts | 214° |
| 2026-05-04 20:19 | 24.65740 | -81.95491 | 4206 ft | 221 kts | 214° |
| 2026-05-04 20:19 | 24.64426 | -81.96371 | 3983 ft | 222 kts | 207° |
| 2026-05-04 20:19 | 24.62963 | -81.96836 | 3772 ft | 224 kts | 189° |
| 2026-05-04 20:20 | 24.61384 | -81.96862 | 3552 ft | 225 kts | 180° |
| 2026-05-04 20:20 | 24.59843 | -81.96821 | 3336 ft | 225 kts | 176° |
| 2026-05-04 20:20 | 24.58314 | -81.96335 | 3108 ft | 227 kts | 154° |
| 2026-05-04 20:20 | 24.57039 | -81.95372 | 3002 ft | 226 kts | 137° |
| 2026-05-04 20:21 | 24.56067 | -81.94001 | 2962 ft | 229 kts | 119° |
| 2026-05-04 20:21 | 24.55537 | -81.92386 | 2704 ft | 223 kts | 99° |
| 2026-05-04 20:21 | 24.55487 | -81.89091 | 2153 ft | 208 kts | 89° |
| 2026-05-04 20:22 | 24.55499 | -81.87541 | 1877 ft | 196 kts | 88° |
| 2026-05-04 20:22 | 24.55511 | -81.86119 | 1639 ft | 177 kts | 87° |
| 2026-05-04 20:22 | 24.55521 | -81.84820 | 1413 ft | 164 kts | 88° |
| 2026-05-04 20:22 | 24.55536 | -81.83557 | 1205 ft | 170 kts | 88° |
| 2026-05-04 20:23 | 24.55550 | -81.82353 | 997 ft | 145 kts | 87° |
| 2026-05-04 20:23 | 24.55557 | -81.81323 | 783 ft | 125 kts | 87° |
| 2026-05-04 20:23 | 24.55569 | -81.80395 | 628 ft | 118 kts | 87° |
| 2026-05-04 20:23 | 24.55578 | -81.79524 | 503 ft | 110 kts | 87° |
| 2026-05-04 20:24 | 24.55590 | -81.78694 | 376 ft | 109 kts | 86° |
| 2026-05-04 20:24 | 24.55594 | -81.77829 | 254 ft | 116 kts | 87° |
| 2026-05-04 20:24 | 24.55598 | -81.76936 | 81 ft | 116 kts | 87° |
| 2026-05-04 20:24 | 24.55611 | -81.76102 | 8 ft | 97 kts | 88° |
| 2026-05-04 20:25 | 24.55617 | -81.75513 | 6 ft | 36 kts | 89° |
| 2026-05-04 20:25 | 24.55617 | -81.75289 | 5 ft | 17 kts | 106° |
| 2026-05-04 20:25 | 24.55558 | -81.75253 | 4 ft | 10 kts | 181° |
| 2026-05-04 20:25 | 24.55533 | -81.75310 | 4 ft | 10 kts | 268° |
| 2026-05-04 20:26 | 24.55532 | -81.75383 | 4 ft | 10 kts | 270° |
| 2026-05-04 20:26 | 24.55530 | -81.75461 | 4 ft | 11 kts | 268° |
| 2026-05-04 20:26 | 24.55531 | -81.75543 | 4 ft | 11 kts | 274° |
| 2026-05-04 20:26 | 24.55502 | -81.75587 | 4 ft | 8 kts | 178° |
| 2026-05-04 20:27 | 24.55462 | -81.75606 | 4 ft | 6 kts | 267° |
| 2026-05-04 20:27 | 24.55454 | -81.75647 | 4 ft | 5 kts | 211° |
| 2026-05-04 20:27 | 24.55447 | -81.75649 | 4 ft | 0 kts | 181° |